Time;durP1;ratioP1;P1;durP2;ratioP2;P2;SDS_P1;SDS_P2;PMS_P1;PMS_P2;Temp;Humidity;BMP_temperature;BMP_pressure;BME280_temperature;BME280_humidity;BME280_pressure;Samples;Min_cycle;Max_cycle;Signal;HPM_P1;HPM_P2
2021/09/19 00:01:51;;;;;;;2.03;0.98;;;;;;;13.81;96.38;101280.41;4993371;28;20092;-66
2021/09/19 00:04:16;;;;;;;3.65;1.48;;;;;;;13.71;96.57;101277.50;4993345;28;20483;-66
2021/09/19 00:06:41;;;;;;;2.53;1.27;;;;;;;13.61;96.65;101278.88;4991728;28;20479;-67
2021/09/19 00:09:07;;;;;;;1.75;1.15;;;;;;;13.63;96.58;101275.81;4987204;28;20066;-66
2021/09/19 00:11:33;;;;;;;3.50;1.20;;;;;;;13.57;96.88;101273.38;4990667;28;20038;-67
2021/09/19 00:13:58;;;;;;;2.53;1.38;;;;;;;13.50;96.95;101273.28;4990285;28;20037;-68
2021/09/19 00:16:24;;;;;;;2.30;1.48;;;;;;;13.46;97.34;101267.00;5001914;28;20094;-67
2021/09/19 00:18:49;;;;;;;3.03;1.60;;;;;;;13.49;97.56;101276.34;5011872;28;20056;-67
2021/09/19 00:21:14;;;;;;;1.95;1.10;;;;;;;13.48;97.71;101275.56;5008391;28;20453;-67
2021/09/19 00:23:40;;;;;;;2.80;1.38;;;;;;;13.52;97.46;101272.91;4989652;28;20066;-68
2021/09/19 00:26:06;;;;;;;4.47;1.35;;;;;;;13.47;98.08;101276.69;5004497;28;20117;-67
2021/09/19 00:28:31;;;;;;;2.53;1.40;;;;;;;13.52;97.61;101271.00;4991322;28;20121;-67
2021/09/19 00:30:57;;;;;;;4.35;1.45;;;;;;;13.53;97.98;101271.75;4991290;28;20038;-67
2021/09/19 00:33:22;;;;;;;3.55;2.03;;;;;;;13.54;97.43;101268.72;4992294;28;20092;-67
2021/09/19 00:35:48;;;;;;;3.30;1.40;;;;;;;13.51;97.60;101268.66;4968430;28;20104;-66
2021/09/19 00:38:13;;;;;;;2.20;1.30;;;;;;;13.43;97.94;101262.31;4991033;28;20054;-66
2021/09/19 00:40:39;;;;;;;5.75;1.42;;;;;;;13.43;97.57;101264.25;4991749;28;20034;-67
2021/09/19 00:43:04;;;;;;;3.00;1.40;;;;;;;13.41;98.24;101269.22;4992094;28;20053;-66
2021/09/19 00:45:30;;;;;;;4.47;1.10;;;;;;;13.50;98.07;101269.78;4983087;28;20046;-66
2021/09/19 00:47:55;;;;;;;4.85;1.00;;;;;;;13.40;98.29;101263.03;4992015;28;20045;-66
2021/09/19 00:50:24;;;;;;;3.20;1.17;;;;;;;13.38;98.34;101261.81;4988128;28;20026;-66
2021/09/19 00:52:50;;;;;;;3.08;1.23;;;;;;;13.39;98.31;101258.75;4987071;28;20125;-66
2021/09/19 00:55:17;;;;;;;3.72;1.40;;;;;;;13.35;98.22;101254.44;4996626;28;20514;-67
2021/09/19 00:57:46;;;;;;;1.90;1.40;;;;;;;13.35;98.01;101260.63;4986056;28;20032;-67
2021/09/19 01:00:14;;;;;;;3.55;1.40;;;;;;;13.27;98.49;101252.72;5005798;28;20044;-68
2021/09/19 01:02:40;;;;;;;2.55;1.00;;;;;;;13.28;98.51;101259.69;4988123;28;20049;-67
2021/09/19 01:05:07;;;;;;;4.10;1.13;;;;;;;13.29;98.45;101253.94;4991386;28;20042;-67
2021/09/19 01:07:33;;;;;;;3.17;1.10;;;;;;;13.27;98.76;101250.00;4994216;28;20034;-67
2021/09/19 01:09:59;;;;;;;2.63;1.45;;;;;;;13.23;98.45;101252.66;4981049;28;20031;-67
2021/09/19 01:12:25;;;;;;;3.47;1.30;;;;;;;13.10;99.14;101248.56;4989741;28;20093;-66
2021/09/19 01:14:51;;;;;;;2.28;1.33;;;;;;;13.22;99.01;101255.72;5003024;28;20038;-66
2021/09/19 01:17:20;;;;;;;3.38;1.50;;;;;;;13.15;99.01;101245.53;4980371;28;20046;-66
2021/09/19 01:19:47;;;;;;;1.95;1.17;;;;;;;13.15;99.09;101252.88;5001185;28;20113;-66
2021/09/19 01:22:14;;;;;;;1.48;0.80;;;;;;;13.09;99.22;101246.19;5005917;28;20072;-68
2021/09/19 01:24:40;;;;;;;1.38;0.98;;;;;;;13.16;98.97;101252.50;5003797;28;20022;-67
2021/09/19 01:27:06;;;;;;;2.47;1.27;;;;;;;13.13;99.37;101258.63;5000728;28;20038;-67
2021/09/19 01:29:33;;;;;;;3.40;1.40;;;;;;;13.10;99.47;101253.16;4977596;28;20455;-66
2021/09/19 01:31:58;;;;;;;3.17;1.40;;;;;;;13.21;99.74;101257.66;4996550;28;20600;-67
2021/09/19 01:34:25;;;;;;;3.10;1.17;;;;;;;13.26;100.00;101259.25;4990685;28;20053;-67
2021/09/19 01:36:51;;;;;;;5.43;1.20;;;;;;;13.27;99.63;101263.53;4998567;28;20026;-66
2021/09/19 01:39:17;;;;;;;3.97;1.25;;;;;;;13.15;99.96;101266.38;5004746;28;20061;-67
2021/09/19 01:41:43;;;;;;;2.83;1.52;;;;;;;13.25;100.00;101263.13;4998704;28;20042;-67
2021/09/19 01:44:09;;;;;;;4.95;1.25;;;;;;;13.32;100.00;101260.53;5003335;28;20090;-67
2021/09/19 01:46:35;;;;;;;2.78;1.30;;;;;;;13.40;100.00;101262.25;4972909;28;20029;-67
2021/09/19 01:49:01;;;;;;;2.08;1.10;;;;;;;13.41;100.00;101261.13;4990349;28;20165;-66
2021/09/19 01:51:27;;;;;;;3.92;1.38;;;;;;;13.40;100.00;101262.25;4982841;28;20507;-66
2021/09/19 01:53:53;;;;;;;3.90;1.77;;;;;;;13.45;100.00;101257.31;4990128;28;20562;-66
2021/09/19 01:56:20;;;;;;;4.50;1.05;;;;;;;13.49;100.00;101254.69;4995902;28;20088;-67
2021/09/19 01:58:52;;;;;;;2.88;1.33;;;;;;;13.55;100.00;101262.13;4987339;28;20482;-68
2021/09/19 02:01:21;;;;;;;2.63;1.20;;;;;;;13.56;100.00;101258.31;4971213;28;20034;-68
2021/09/19 02:03:48;;;;;;;1.77;0.85;;;;;;;13.57;100.00;101259.84;4994492;28;20487;-66
2021/09/19 02:06:13;;;;;;;2.35;1.05;;;;;;;13.66;100.00;101265.06;4997913;28;20035;-67
2021/09/19 02:08:39;;;;;;;4.25;1.33;;;;;;;13.69;100.00;101260.81;4993679;28;20042;-66
2021/09/19 02:11:07;;;;;;;2.90;1.48;;;;;;;13.74;100.00;101255.13;4989626;28;20030;-67
2021/09/19 02:13:33;;;;;;;2.58;1.40;;;;;;;13.76;100.00;101266.38;4992722;28;20047;-67
2021/09/19 02:15:59;;;;;;;4.10;1.50;;;;;;;13.73;100.00;101262.47;4991511;28;20026;-67
2021/09/19 02:18:24;;;;;;;2.33;1.27;;;;;;;13.78;100.00;101256.72;4993445;28;20033;-66
2021/09/19 02:20:50;;;;;;;2.17;1.23;;;;;;;13.74;100.00;101250.50;4989165;28;20148;-67
2021/09/19 02:23:15;;;;;;;3.25;1.25;;;;;;;13.81;100.00;101245.19;4975013;28;20042;-66
2021/09/19 02:25:41;;;;;;;4.10;1.35;;;;;;;13.86;100.00;101247.59;4975859;28;20085;-66
2021/09/19 02:28:07;;;;;;;2.13;1.23;;;;;;;13.86;100.00;101242.19;4993059;28;20057;-66
2021/09/19 02:30:32;;;;;;;3.72;1.17;;;;;;;13.87;100.00;101249.16;4986254;28;20038;-66
2021/09/19 02:32:58;;;;;;;2.72;1.50;;;;;;;13.90;100.00;101243.00;4992893;28;20117;-66
2021/09/19 02:35:23;;;;;;;2.38;1.20;;;;;;;13.87;100.00;101241.03;4999649;28;20113;-67
2021/09/19 02:37:49;;;;;;;1.67;1.00;;;;;;;13.90;100.00;101240.31;5000744;28;20501;-67
2021/09/19 02:40:16;;;;;;;2.13;1.30;;;;;;;13.89;100.00;101244.19;5013326;28;20029;-66
2021/09/19 02:42:42;;;;;;;2.70;1.30;;;;;;;13.93;100.00;101241.53;4987215;28;20419;-67
2021/09/19 02:45:09;;;;;;;1.90;1.10;;;;;;;13.95;100.00;101240.03;4987486;28;20046;-67
2021/09/19 02:47:35;;;;;;;3.50;1.20;;;;;;;13.97;100.00;101243.16;5013055;28;20486;-66
2021/09/19 02:50:01;;;;;;;2.03;1.10;;;;;;;14.00;100.00;101245.13;4996721;28;20034;-67
2021/09/19 02:52:27;;;;;;;3.15;1.00;;;;;;;13.96;100.00;101246.97;4999366;28;20034;-67
2021/09/19 02:54:53;;;;;;;1.88;1.20;;;;;;;13.96;100.00;101243.50;5003711;28;20037;-67
2021/09/19 02:57:18;;;;;;;2.15;1.20;;;;;;;13.91;100.00;101246.50;4993700;28;20505;-66
2021/09/19 02:59:44;;;;;;;4.18;1.13;;;;;;;13.91;100.00;101251.94;4990393;28;20045;-66
2021/09/19 03:02:09;;;;;;;2.00;0.93;;;;;;;13.92;100.00;101254.28;5011802;28;20037;-66
2021/09/19 03:04:35;;;;;;;1.65;1.00;;;;;;;13.94;100.00;101253.91;4992866;28;20022;-67
2021/09/19 03:07:00;;;;;;;3.17;1.02;;;;;;;13.98;100.00;101257.44;4992870;28;20038;-66
2021/09/19 03:09:26;;;;;;;2.80;1.48;;;;;;;14.01;100.00;101254.81;4993224;28;20046;-66
2021/09/19 03:11:51;;;;;;;1.75;1.05;;;;;;;14.01;100.00;101252.13;5001816;28;20109;-67
2021/09/19 03:14:17;;;;;;;3.13;1.27;;;;;;;14.02;100.00;101250.16;4998003;28;20064;-66
2021/09/19 03:16:42;;;;;;;2.22;1.20;;;;;;;14.05;100.00;101241.34;4992464;28;20061;-68
2021/09/19 03:19:08;;;;;;;2.78;1.00;;;;;;;14.05;100.00;101249.47;4980336;28;20034;-66
2021/09/19 03:21:33;;;;;;;2.92;1.23;;;;;;;14.07;100.00;101247.94;4991322;28;20514;-67
2021/09/19 03:23:58;;;;;;;1.85;1.10;;;;;;;14.09;100.00;101245.63;4991456;28;20034;-67
2021/09/19 03:26:24;;;;;;;1.95;1.25;;;;;;;14.09;100.00;101248.34;5004195;28;20045;-66
2021/09/19 03:28:49;;;;;;;2.58;1.35;;;;;;;14.07;100.00;101242.50;5006721;28;20493;-66
2021/09/19 03:31:15;;;;;;;1.88;1.13;;;;;;;14.07;100.00;101249.88;4991501;28;20045;-66
2021/09/19 03:33:40;;;;;;;2.90;1.08;;;;;;;14.07;100.00;101253.34;4992631;28;20442;-67
2021/09/19 03:36:06;;;;;;;3.35;1.20;;;;;;;14.10;100.00;101241.81;4989893;28;20042;-68
2021/09/19 03:38:31;;;;;;;2.67;1.20;;;;;;;14.06;100.00;101232.84;5001045;28;20049;-66
2021/09/19 03:40:57;;;;;;;4.47;1.13;;;;;;;14.04;100.00;101243.25;5010242;28;20049;-67
2021/09/19 03:43:22;;;;;;;3.55;0.93;;;;;;;14.08;100.00;101241.38;4996349;28;20035;-67
2021/09/19 03:45:48;;;;;;;2.63;1.30;;;;;;;14.08;100.00;101244.09;5011844;28;20030;-68
2021/09/19 03:48:13;;;;;;;4.93;1.30;;;;;;;14.10;100.00;101249.13;5010899;28;20034;-66
2021/09/19 03:50:39;;;;;;;3.15;1.40;;;;;;;14.12;100.00;101260.41;5010851;28;20763;-67
2021/09/19 03:53:05;;;;;;;2.53;1.17;;;;;;;14.12;100.00;101252.25;4993500;28;20026;-66
2021/09/19 03:55:31;;;;;;;1.95;1.23;;;;;;;14.16;100.00;101255.81;5008285;28;20029;-66
2021/09/19 03:57:59;;;;;;;7.78;1.00;;;;;;;14.15;100.00;101260.44;4989650;28;20461;-67
2021/09/19 04:00:24;;;;;;;1.85;0.80;;;;;;;14.13;100.00;101262.72;4995829;28;20038;-67
2021/09/19 04:02:50;;;;;;;2.67;1.10;;;;;;;14.10;100.00;101265.38;4996175;28;20033;-67
2021/09/19 04:05:15;;;;;;;3.17;1.13;;;;;;;14.10;100.00;101263.47;5002000;28;20102;-67
2021/09/19 04:07:41;;;;;;;3.33;1.08;;;;;;;14.09;100.00;101266.56;4989984;28;20042;-67
2021/09/19 04:10:08;;;;;;;2.30;1.08;;;;;;;14.10;100.00;101266.19;5000371;28;20117;-67
2021/09/19 04:12:33;;;;;;;1.92;1.20;;;;;;;14.10;100.00;101259.97;4987888;28;20029;-67
2021/09/19 04:14:59;;;;;;;1.55;1.05;;;;;;;14.11;100.00;101261.56;4977479;28;20038;-67
2021/09/19 04:17:25;;;;;;;1.27;0.85;;;;;;;14.13;100.00;101256.56;4988626;28;20034;-66
2021/09/19 04:19:50;;;;;;;2.47;1.10;;;;;;;14.10;100.00;101262.69;4991893;28;20062;-66
2021/09/19 04:22:16;;;;;;;2.10;1.02;;;;;;;14.11;100.00;101272.38;4990570;28;20369;-66
2021/09/19 04:24:42;;;;;;;3.95;1.27;;;;;;;14.14;100.00;101269.72;4988319;28;20042;-67
2021/09/19 04:27:07;;;;;;;2.20;1.20;;;;;;;14.14;100.00;101261.59;4984107;28;20034;-67
2021/09/19 04:29:34;;;;;;;2.08;1.00;;;;;;;14.16;100.00;101261.22;4991319;28;20088;-67
2021/09/19 04:32:01;;;;;;;1.67;0.90;;;;;;;14.11;100.00;101270.44;4990726;28;20121;-67
2021/09/19 04:34:27;;;;;;;3.25;0.82;;;;;;;14.12;100.00;101265.81;4990860;28;20061;-66
2021/09/19 04:36:52;;;;;;;2.70;1.00;;;;;;;14.14;100.00;101277.84;5005159;28;20021;-67
2021/09/19 04:39:18;;;;;;;1.92;1.00;;;;;;;14.13;100.00;101273.56;5006161;28;20526;-67
2021/09/19 04:41:44;;;;;;;3.90;1.13;;;;;;;14.12;100.00;101269.31;4990877;28;20050;-67
2021/09/19 04:44:09;;;;;;;2.45;1.15;;;;;;;14.11;100.00;101267.72;5001690;28;20088;-66
2021/09/19 04:46:35;;;;;;;2.10;0.95;;;;;;;14.09;100.00;101267.31;5010153;28;20438;-67
2021/09/19 04:49:00;;;;;;;1.67;0.98;;;;;;;14.09;100.00;101263.84;5010876;28;20053;-68
2021/09/19 04:51:26;;;;;;;2.17;1.13;;;;;;;14.08;100.00;101260.34;4966294;28;20053;-67
2021/09/19 04:53:51;;;;;;;2.67;1.33;;;;;;;14.09;100.00;101259.19;4992975;28;20035;-67
2021/09/19 04:56:17;;;;;;;2.38;0.90;;;;;;;14.13;100.00;101261.97;4987469;28;20108;-68
2021/09/19 04:58:42;;;;;;;2.75;1.20;;;;;;;14.11;100.00;101265.03;4989730;28;20396;-67
2021/09/19 05:01:08;;;;;;;2.95;1.05;;;;;;;14.12;100.00;101265.81;4980513;28;20089;-67
2021/09/19 05:03:33;;;;;;;3.40;1.55;;;;;;;14.13;100.00;101264.69;4990637;28;20109;-67
2021/09/19 05:05:59;;;;;;;7.10;1.17;;;;;;;14.08;100.00;101254.94;5009051;28;20044;-66
2021/09/19 05:08:25;;;;;;;1.80;1.13;;;;;;;14.14;100.00;101258.91;5009347;28;20035;-66
2021/09/19 05:10:51;;;;;;;3.67;1.35;;;;;;;14.18;100.00;101258.94;5006335;28;20041;-67
2021/09/19 05:13:17;;;;;;;2.17;1.08;;;;;;;14.15;100.00;101256.97;4988643;28;20068;-66
2021/09/19 05:15:42;;;;;;;2.08;1.05;;;;;;;14.16;100.00;101262.03;4994466;28;20534;-67
2021/09/19 05:18:08;;;;;;;2.75;1.27;;;;;;;14.17;100.00;101260.88;4969111;28;20130;-68
2021/09/19 05:20:33;;;;;;;2.35;1.10;;;;;;;14.09;100.00;101259.19;4997310;28;20097;-67
2021/09/19 05:22:59;;;;;;;2.83;1.30;;;;;;;14.10;100.00;101260.75;4993191;28;20066;-67
2021/09/19 05:25:24;;;;;;;4.40;1.00;;;;;;;14.10;100.00;101260.75;4995575;28;20454;-68
2021/09/19 05:27:50;;;;;;;0.98;0.75;;;;;;;14.08;100.00;101268.47;4992928;28;20029;-67
2021/09/19 05:30:16;;;;;;;2.03;1.15;;;;;;;14.14;100.00;101267.03;4994254;28;20490;-66
2021/09/19 05:32:42;;;;;;;1.83;1.10;;;;;;;14.13;100.00;101264.69;4989069;28;20372;-67
2021/09/19 05:35:09;;;;;;;2.00;1.25;;;;;;;14.14;100.00;101268.94;4973522;28;20050;-67
2021/09/19 05:37:34;;;;;;;2.25;1.00;;;;;;;14.14;100.00;101274.34;4996360;28;20032;-66
2021/09/19 05:40:00;;;;;;;1.90;1.00;;;;;;;14.14;100.00;101277.06;4994462;28;20038;-67
2021/09/19 05:42:25;;;;;;;1.88;1.05;;;;;;;14.15;100.00;101274.00;4975577;28;20018;-67
2021/09/19 05:44:51;;;;;;;1.10;0.98;;;;;;;14.13;100.00;101272.81;4991100;28;20038;-67
2021/09/19 05:47:16;;;;;;;1.88;0.98;;;;;;;14.12;100.00;101266.59;5013874;28;20121;-67
2021/09/19 05:49:42;;;;;;;3.05;1.20;;;;;;;14.15;100.00;101265.09;5011571;28;20036;-68
2021/09/19 05:52:07;;;;;;;2.20;1.08;;;;;;;14.20;100.00;101270.19;4973384;28;20045;-67
2021/09/19 05:54:32;;;;;;;2.33;1.20;;;;;;;14.22;100.00;101271.41;4990855;28;20037;-66
2021/09/19 05:56:58;;;;;;;3.63;1.25;;;;;;;14.19;100.00;101269.41;4990845;28;20034;-66
2021/09/19 05:59:23;;;;;;;3.00;1.05;;;;;;;14.25;99.72;101264.47;4993677;28;20117;-68
2021/09/19 06:01:51;;;;;;;1.52;0.90;;;;;;;14.29;99.74;101266.13;4990591;28;20037;-67
2021/09/19 06:04:17;;;;;;;2.20;1.05;;;;;;;14.30;99.33;101258.78;4993422;28;20499;-67
2021/09/19 06:06:42;;;;;;;2.15;1.08;;;;;;;14.28;98.87;101267.28;4968197;28;20040;-68
2021/09/19 06:09:08;;;;;;;1.55;0.88;;;;;;;14.34;98.16;101265.78;4987022;28;20042;-67
2021/09/19 06:11:34;;;;;;;1.55;1.15;;;;;;;14.34;97.94;101271.22;4994164;28;20033;-66
2021/09/19 06:13:59;;;;;;;2.67;1.02;;;;;;;14.38;96.75;101272.06;5001134;28;20431;-66
2021/09/19 06:16:25;;;;;;;1.48;1.10;;;;;;;14.42;95.96;101277.50;4997996;28;20365;-67
2021/09/19 06:18:50;;;;;;;2.08;1.00;;;;;;;14.41;95.88;101268.63;4993752;28;20026;-66
2021/09/19 06:21:15;;;;;;;1.98;1.10;;;;;;;14.37;95.74;101283.25;4996660;28;20836;-67
2021/09/19 06:23:41;;;;;;;1.42;0.80;;;;;;;14.45;94.61;101277.59;4997791;28;20042;-66
2021/09/19 06:26:07;;;;;;;2.38;0.95;;;;;;;14.51;93.47;101282.69;4977536;28;20047;-67
2021/09/19 06:28:32;;;;;;;4.47;1.20;;;;;;;14.42;93.96;101275.59;4968244;28;20042;-66
2021/09/19 06:30:59;;;;;;;1.40;0.90;;;;;;;14.43;94.71;101277.19;4994284;28;20102;-66
2021/09/19 06:33:26;;;;;;;2.17;1.10;;;;;;;14.55;93.87;101283.53;4992819;28;20029;-67
2021/09/19 06:35:52;;;;;;;1.95;0.93;;;;;;;14.54;93.70;101290.88;4994007;28;20095;-67
2021/09/19 06:38:17;;;;;;;2.33;0.90;;;;;;;14.60;92.89;101285.91;4998162;28;20043;-68
2021/09/19 06:40:43;;;;;;;2.17;1.02;;;;;;;14.67;91.73;101280.59;5000185;28;20479;-66
2021/09/19 06:43:08;;;;;;;2.28;1.20;;;;;;;14.61;92.50;101287.47;5008486;28;20117;-66
2021/09/19 06:45:34;;;;;;;2.00;1.00;;;;;;;14.64;90.87;101284.81;5013559;28;20387;-67
2021/09/19 06:47:59;;;;;;;4.78;0.90;;;;;;;14.64;90.94;101276.69;5012881;28;20038;-66
2021/09/19 06:50:24;;;;;;;1.58;0.80;;;;;;;14.62;91.48;101270.06;5009833;28;20156;-67
2021/09/19 06:52:50;;;;;;;2.35;0.90;;;;;;;14.60;91.29;101275.84;5004163;28;20160;-67
2021/09/19 06:55:15;;;;;;;1.90;0.90;;;;;;;14.67;91.02;101269.75;4999741;28;20049;-66
2021/09/19 06:57:41;;;;;;;2.03;1.00;;;;;;;14.66;91.58;101273.59;5003083;28;20037;-66
2021/09/19 07:00:08;;;;;;;1.98;0.85;;;;;;;14.72;91.48;101266.72;5006343;28;20042;-66
2021/09/19 07:02:33;;;;;;;0.82;0.55;;;;;;;14.82;90.80;101276.94;4989834;28;20053;-68
2021/09/19 07:04:59;;;;;;;2.00;1.00;;;;;;;14.85;90.21;101279.69;4993241;28;20483;-67
2021/09/19 07:07:25;;;;;;;2.03;0.90;;;;;;;14.83;90.28;101279.25;4992892;28;20018;-67
2021/09/19 07:09:50;;;;;;;2.10;1.05;;;;;;;14.82;90.55;101276.94;4985143;28;20041;-68
2021/09/19 07:12:16;;;;;;;3.05;1.00;;;;;;;14.86;90.59;101270.41;4988405;28;20018;-67
2021/09/19 07:14:41;;;;;;;1.63;1.08;;;;;;;14.91;89.43;101263.88;4993169;28;20491;-67
2021/09/19 07:17:07;;;;;;;4.07;1.00;;;;;;;14.87;88.80;101265.75;4982421;28;20046;-68
2021/09/19 07:19:32;;;;;;;3.70;1.13;;;;;;;14.90;89.15;101265.81;4993443;28;20062;-67
2021/09/19 07:21:58;;;;;;;2.38;0.90;;;;;;;14.93;89.46;101269.69;4975205;28;20441;-67
2021/09/19 07:24:23;;;;;;;3.40;1.08;;;;;;;14.99;89.66;101262.81;4997321;28;20057;-66
2021/09/19 07:26:49;;;;;;;2.35;1.23;;;;;;;15.08;89.08;101260.56;4991155;28;20031;-68
2021/09/19 07:29:15;;;;;;;1.90;0.95;;;;;;;15.03;89.89;101260.91;4998979;28;20034;-66
2021/09/19 07:31:41;;;;;;;1.63;0.93;;;;;;;15.05;90.22;101264.84;4992613;28;20088;-67
2021/09/19 07:34:06;;;;;;;1.55;0.77;;;;;;;15.18;89.44;101265.34;4994274;28;20018;-67
2021/09/19 07:36:34;;;;;;;1.77;0.75;;;;;;;15.25;89.02;101263.50;4971937;28;20129;-67
2021/09/19 07:39:05;;;;;;;1.73;1.00;;;;;;;15.33;88.96;101269.78;4984193;28;20024;-67
2021/09/19 07:41:31;;;;;;;1.80;1.00;;;;;;;15.31;89.15;101266.69;5001605;28;20030;-67
2021/09/19 07:43:57;;;;;;;1.92;0.93;;;;;;;15.38;88.73;101261.31;5010733;28;20034;-67
2021/09/19 07:46:23;;;;;;;2.40;0.90;;;;;;;15.39;88.96;101271.81;5007109;28;20041;-67
2021/09/19 07:48:49;;;;;;;1.50;0.70;;;;;;;15.31;88.22;101280.25;5004112;28;20034;-67
2021/09/19 07:51:15;;;;;;;2.08;0.98;;;;;;;15.36;87.60;101279.91;4977301;28;20030;-67
2021/09/19 07:53:41;;;;;;;1.63;0.88;;;;;;;15.42;87.60;101283.91;4993033;28;20424;-67
2021/09/19 07:56:07;;;;;;;1.15;0.75;;;;;;;15.45;87.00;101283.13;5008600;28;20042;-67
2021/09/19 07:58:32;;;;;;;2.65;0.80;;;;;;;15.56;86.99;101294.13;4997756;28;20043;-68
2021/09/19 08:00:58;;;;;;;1.35;0.85;;;;;;;15.62;86.64;101298.06;4995022;28;20033;-68
2021/09/19 08:03:23;;;;;;;2.97;0.90;;;;;;;15.66;87.13;101298.88;4990290;28;20026;-67
2021/09/19 08:05:49;;;;;;;3.80;1.00;;;;;;;15.68;87.29;101291.16;4987989;28;20038;-68
2021/09/19 08:08:14;;;;;;;2.15;0.90;;;;;;;15.72;86.59;101295.44;5004661;28;20109;-67
2021/09/19 08:10:40;;;;;;;4.25;0.70;;;;;;;15.82;87.34;101289.34;4994214;28;20038;-67
2021/09/19 08:13:06;;;;;;;1.30;0.70;;;;;;;15.85;86.73;101294.00;4991380;28;20446;-67
2021/09/19 08:15:32;;;;;;;1.70;0.93;;;;;;;15.86;86.41;101295.59;4987950;28;20161;-68
2021/09/19 08:17:57;;;;;;;1.90;1.17;;;;;;;15.89;85.76;101294.81;4988139;28;20117;-67
2021/09/19 08:20:23;;;;;;;1.58;0.90;;;;;;;15.87;85.89;101302.56;4975066;28;20034;-69
2021/09/19 08:22:49;;;;;;;2.17;0.80;;;;;;;15.88;83.31;101298.72;4976255;28;20031;-67
2021/09/19 08:25:16;;;;;;;2.58;1.10;;;;;;;16.01;83.38;101304.63;4993500;28;20053;-67
2021/09/19 08:27:42;;;;;;;1.58;1.02;;;;;;;16.10;83.32;101288.81;4991598;28;20046;-67
2021/09/19 08:30:10;;;;;;;1.25;0.82;;;;;;;16.12;81.79;101294.66;4990653;28;20034;-67
2021/09/19 08:32:36;;;;;;;1.17;0.73;;;;;;;16.12;81.19;101298.13;4990008;28;20495;-68
2021/09/19 08:35:02;;;;;;;1.98;0.80;;;;;;;16.15;79.85;101297.38;4975354;28;20038;-67
2021/09/19 08:37:28;;;;;;;4.32;0.77;;;;;;;16.28;79.14;101297.84;4990118;28;20041;-68
2021/09/19 08:39:54;;;;;;;1.60;0.70;;;;;;;16.46;79.67;101301.50;4994973;28;20038;-67
2021/09/19 08:42:20;;;;;;;1.25;0.68;;;;;;;16.50;79.22;101304.25;5001721;28;20048;-67
2021/09/19 08:44:47;;;;;;;1.15;0.65;;;;;;;16.65;80.12;101308.63;5010878;28;20109;-67
2021/09/19 08:47:13;;;;;;;1.83;1.02;;;;;;;16.78;79.73;101309.91;4990258;28;20042;-67
2021/09/19 08:49:39;;;;;;;1.50;0.80;;;;;;;16.89;78.88;101311.50;5007944;28;20100;-67
2021/09/19 08:52:05;;;;;;;1.50;0.70;;;;;;;17.01;75.78;101305.72;5008883;28;20048;-67
2021/09/19 08:54:30;;;;;;;1.00;0.70;;;;;;;17.22;75.68;101305.03;5008967;28;20022;-67
2021/09/19 08:56:56;;;;;;;2.10;0.90;;;;;;;17.49;74.51;101309.06;5005446;28;20044;-67
2021/09/19 08:59:21;;;;;;;0.60;0.40;;;;;;;17.96;71.41;101313.44;5008251;28;20048;-68
2021/09/19 09:02:01;;;;;;;1.17;0.80;;;;;;;18.31;66.28;101305.22;4972814;28;20053;-66
2021/09/19 09:04:29;;;;;;;1.05;0.80;;;;;;;18.72;61.70;101300.91;4984775;28;20038;-67
2021/09/19 09:06:55;;;;;;;1.08;0.70;;;;;;;18.99;62.13;101308.66;4989579;28;20377;-68
2021/09/19 09:09:21;;;;;;;0.93;0.52;;;;;;;19.24;63.34;101310.09;4986371;28;20037;-67
2021/09/19 09:12:07;;;;;;;1.10;0.80;;;;;;;19.24;58.13;101307.34;4993952;28;20027;-67
2021/09/19 09:14:40;;;;;;;0.68;0.43;;;;;;;19.34;60.40;101311.22;5000493;28;20029;-67
2021/09/19 09:17:20;;;;;;;1.25;0.50;;;;;;;19.45;59.02;101307.28;4994598;28;20045;-67
2021/09/19 09:19:49;;;;;;;2.22;1.10;;;;;;;19.44;56.83;101313.94;4996047;28;20038;-67
2021/09/19 09:22:20;;;;;;;0.55;0.50;;;;;;;19.45;56.06;101310.00;4995697;28;20430;-67
2021/09/19 09:25:12;;;;;;;1.15;0.63;;;;;;;19.45;55.69;101303.78;4987418;28;20072;-67
2021/09/19 09:27:38;;;;;;;1.70;0.70;;;;;;;19.49;55.55;101310.75;4966601;28;20049;-67
2021/09/19 09:30:16;;;;;;;0.88;0.60;;;;;;;19.24;53.76;101312.81;4989644;28;20036;-68
2021/09/19 09:33:02;;;;;;;0.95;0.68;;;;;;;19.02;54.13;101303.16;4990318;28;20030;-67
2021/09/19 09:35:34;;;;;;;1.88;0.80;;;;;;;18.70;53.60;101302.47;4998488;28;20026;-67
2021/09/19 09:38:00;;;;;;;1.55;0.90;;;;;;;18.69;55.48;101300.91;4999655;28;20034;-67
2021/09/19 09:40:31;;;;;;;1.17;0.55;;;;;;;18.70;55.90;101302.47;4996380;28;20061;-67
2021/09/19 09:43:08;;;;;;;0.88;0.60;;;;;;;18.79;55.37;101297.41;5001051;28;20121;-69
2021/09/19 09:45:35;;;;;;;1.38;0.80;;;;;;;18.86;55.74;101298.16;5009562;28;20034;-67
2021/09/19 09:48:03;;;;;;;1.30;0.63;;;;;;;18.98;57.86;101298.88;4999005;28;20491;-68
2021/09/19 09:50:29;;;;;;;0.63;0.55;;;;;;;18.93;57.46;101308.25;4989282;28;20058;-68
2021/09/19 09:53:12;;;;;;;1.58;0.73;;;;;;;19.01;57.84;101304.31;4986975;28;20118;-67
2021/09/19 09:55:45;;;;;;;1.85;0.90;;;;;;;18.97;57.65;101302.81;4986797;28;20042;-67
2021/09/19 09:58:18;;;;;;;1.08;0.68;;;;;;;18.84;58.94;101305.16;5000122;28;20434;-67
2021/09/19 10:00:45;;;;;;;1.83;0.80;;;;;;;18.74;57.82;101298.56;4973588;28;20058;-67
2021/09/19 10:03:11;;;;;;;2.22;0.63;;;;;;;18.71;55.84;101301.31;4975369;28;20068;-67
2021/09/19 10:05:36;;;;;;;0.93;0.70;;;;;;;18.74;57.99;101303.25;4995417;28;20030;-68
2021/09/19 10:08:03;;;;;;;0.68;0.63;;;;;;;18.82;58.40;101304.78;4995773;28;20033;-68
2021/09/19 10:10:31;;;;;;;1.38;0.68;;;;;;;18.66;57.99;101305.22;4988584;28;20042;-67
2021/09/19 10:12:58;;;;;;;1.30;0.77;;;;;;;18.68;57.68;101305.59;5005773;28;20026;-67
2021/09/19 10:15:25;;;;;;;1.20;0.75;;;;;;;18.79;57.35;101300.88;5002750;28;20037;-67
2021/09/19 10:17:51;;;;;;;1.25;0.60;;;;;;;18.84;56.97;101296.97;4984827;28;20030;-67
2021/09/19 10:20:29;;;;;;;1.17;0.70;;;;;;;18.80;57.00;101309.84;4998445;28;20164;-67
2021/09/19 10:23:01;;;;;;;1.13;0.77;;;;;;;18.63;57.12;101307.94;4985416;28;20077;-68
2021/09/19 10:25:29;;;;;;;1.33;0.85;;;;;;;18.64;59.23;101310.28;4990404;28;20034;-67
2021/09/19 10:28:19;;;;;;;1.63;1.00;;;;;;;18.82;61.52;101311.03;4990194;28;20126;-67
2021/09/19 10:31:11;;;;;;;0.70;0.60;;;;;;;18.87;60.30;101310.59;4994849;28;20028;-67
2021/09/19 10:33:44;;;;;;;1.33;0.60;;;;;;;18.97;60.50;101311.75;4976059;28;20034;-68
2021/09/19 10:36:33;;;;;;;2.25;0.75;;;;;;;19.04;60.50;101305.50;4984908;28;20065;-67
2021/09/19 10:39:16;;;;;;;1.50;0.85;;;;;;;18.83;57.28;101300.91;4986296;28;20049;-67
2021/09/19 10:42:04;;;;;;;1.15;0.60;;;;;;;18.83;57.83;101307.09;4988699;28;20036;-67
2021/09/19 10:44:51;;;;;;;1.00;0.50;;;;;;;18.92;58.18;101303.97;4998473;28;20122;-68
2021/09/19 10:47:22;;;;;;;1.60;0.90;;;;;;;19.03;59.10;101301.22;4997539;28;20495;-67
2021/09/19 10:49:48;;;;;;;1.45;0.80;;;;;;;19.06;59.24;101303.16;4997606;28;20049;-68
2021/09/19 10:52:18;;;;;;;0.70;0.70;;;;;;;19.16;60.28;101292.19;4994031;28;20403;-67
2021/09/19 10:54:52;;;;;;;1.80;0.80;;;;;;;19.12;57.30;101294.16;4982979;28;20031;-68
2021/09/19 10:57:34;;;;;;;3.35;0.90;;;;;;;19.06;57.43;101287.56;4997072;28;20081;-68
2021/09/19 11:00:27;;;;;;;0.95;0.65;;;;;;;19.16;59.14;101283.22;4992540;28;20030;-66
2021/09/19 11:03:03;;;;;;;1.23;0.80;;;;;;;19.18;60.32;101287.09;4983791;28;20399;-67
2021/09/19 11:05:31;;;;;;;1.20;0.80;;;;;;;19.15;58.36;101285.16;4951140;28;20038;-68
2021/09/19 11:08:06;;;;;;;2.10;0.52;;;;;;;19.14;58.09;101280.09;4956209;28;20037;-67
2021/09/19 11:10:33;;;;;;;0.98;0.63;;;;;;;19.15;59.39;101285.16;4991543;28;20034;-67
2021/09/19 11:13:20;;;;;;;1.35;0.73;;;;;;;19.18;59.38;101283.59;4993323;28;20106;-68
2021/09/19 11:16:04;;;;;;;0.80;0.47;;;;;;;19.14;57.41;101278.16;4991437;28;20157;-66
2021/09/19 11:18:39;;;;;;;1.30;0.68;;;;;;;19.08;58.07;101287.94;4973457;28;20402;-66
2021/09/19 11:21:11;;;;;;;0.90;0.63;;;;;;;19.15;57.90;101285.16;4991070;28;20046;-67
2021/09/19 11:23:46;;;;;;;2.10;0.70;;;;;;;19.05;58.11;101283.25;4986140;28;20033;-69